createdAt,value
2015-12-25T00:00:04.255Z,74464
2015-12-25T00:00:16.645Z,74465
2015-12-25T00:00:29.020Z,74462
2015-12-25T00:00:41.397Z,74459
2015-12-25T00:00:53.772Z,74452
2015-12-25T00:01:06.147Z,74458
2015-12-25T00:01:18.553Z,74462
2015-12-25T00:01:30.928Z,74456
2015-12-25T00:01:43.291Z,74457
2015-12-25T00:01:55.635Z,74466
2015-12-25T00:02:07.994Z,74462
2015-12-25T00:02:20.353Z,74459
2015-12-25T00:02:32.713Z,74462
2015-12-25T00:02:45.075Z,74466
2015-12-25T00:02:57.434Z,74461
2015-12-25T00:03:09.653Z,74460
2015-12-25T00:03:22.059Z,74460
2015-12-25T00:03:34.450Z,74458
2015-12-25T00:03:46.874Z,74454
2015-12-25T00:03:59.265Z,74458
2015-12-25T00:04:11.640Z,74454
2015-12-25T00:04:24.015Z,74466
2015-12-25T00:04:36.421Z,74459
2015-12-25T00:04:48.783Z,74458
2015-12-25T00:05:01.158Z,74458
2015-12-25T00:05:13.502Z,74454
2015-12-25T00:05:25.861Z,74451
2015-12-25T00:05:38.205Z,74451
2015-12-25T00:05:50.568Z,74454
2015-12-25T00:06:02.912Z,74454
2015-12-25T00:06:15.272Z,74459
2015-12-25T00:06:27.615Z,74456
2015-12-25T00:06:39.975Z,74458
2015-12-25T00:06:52.336Z,74455
2015-12-25T00:07:04.524Z,74455
2015-12-25T00:07:16.867Z,74450
2015-12-25T00:07:29.242Z,74442
2015-12-25T00:07:41.602Z,74451
2015-12-25T00:07:53.980Z,74449
2015-12-25T00:08:06.355Z,74447
2015-12-25T00:08:18.777Z,74447
2015-12-25T00:08:31.167Z,74452
2015-12-25T00:08:43.542Z,74450
2015-12-25T00:08:55.950Z,74452
2015-12-25T00:09:08.310Z,74460
2015-12-25T00:09:20.669Z,74457
2015-12-25T00:09:33.029Z,74470
2015-12-25T00:09:45.450Z,74467
2015-12-25T00:09:57.813Z,74460
2015-12-25T00:10:09.453Z,74457
2015-12-25T00:10:21.813Z,74461
2015-12-25T00:10:34.219Z,74464
2015-12-25T00:10:46.641Z,74465
2015-12-25T00:10:59.003Z,74471
2015-12-25T00:11:11.347Z,74467
2015-12-25T00:11:23.722Z,74470
2015-12-25T00:11:36.097Z,74470
2015-12-25T00:11:48.472Z,74460
2015-12-25T00:12:00.866Z,74462
2015-12-25T00:12:13.241Z,74459
2015-12-25T00:12:25.631Z,74465
2015-12-25T00:12:38.038Z,74463
2015-12-25T00:12:50.413Z,74466
2015-12-25T00:13:02.791Z,74459
2015-12-25T00:13:15.181Z,74463
2015-12-25T00:13:27.556Z,74463
2015-12-25T00:13:39.947Z,74455
2015-12-25T00:13:52.309Z,74464
2015-12-25T00:14:04.669Z,74466
2015-12-25T00:14:17.012Z,74465
2015-12-25T00:14:29.372Z,74471
2015-12-25T00:14:41.731Z,74467
2015-12-25T00:14:54.091Z,74461
2015-12-25T00:15:06.545Z,74474
2015-12-25T00:15:18.888Z,74465
2015-12-25T00:15:31.248Z,74466
2015-12-25T00:15:43.638Z,74473
2015-12-25T00:15:56.079Z,74467
2015-12-25T00:16:08.438Z,74472
2015-12-25T00:16:20.798Z,74460
2015-12-25T00:16:33.188Z,74467
2015-12-25T00:16:45.579Z,74470
2015-12-25T00:16:57.988Z,74470
2015-12-25T00:17:10.379Z,74469
2015-12-25T00:17:22.754Z,74464
2015-12-25T00:17:35.129Z,74470
2015-12-25T00:17:47.472Z,74468
2015-12-25T00:17:59.850Z,74471
2015-12-25T00:18:12.210Z,74477
2015-12-25T00:18:24.569Z,74474
2015-12-25T00:18:36.944Z,74470
2015-12-25T00:18:49.304Z,74486
2015-12-25T00:19:01.713Z,74472
2015-12-25T00:19:14.135Z,74470
2015-12-25T00:19:26.494Z,74469
2015-12-25T00:19:38.853Z,74477
2015-12-25T00:19:51.213Z,74476
2015-12-25T00:20:03.591Z,74468
2015-12-25T00:20:15.950Z,74460
2015-12-25T00:20:28.325Z,74460
2015-12-25T00:20:40.716Z,74463
2015-12-25T00:20:53.091Z,74467
2015-12-25T00:21:05.468Z,74468
2015-12-25T00:21:17.858Z,74473
2015-12-25T00:21:30.265Z,74470
2015-12-25T00:21:42.655Z,74472
2015-12-25T00:21:55.030Z,74476
2015-12-25T00:22:07.377Z,74471
2015-12-25T00:22:19.736Z,74476
2015-12-25T00:22:32.096Z,74483
2015-12-25T00:22:44.455Z,74471
2015-12-25T00:22:56.815Z,74468
2015-12-25T00:23:09.208Z,74472
2015-12-25T00:23:21.599Z,74473
2015-12-25T00:23:33.974Z,74468
2015-12-25T00:23:46.333Z,74471
2015-12-25T00:23:58.708Z,74477
2015-12-25T00:24:11.070Z,74476
2015-12-25T00:24:23.445Z,74475
2015-12-25T00:24:35.804Z,74476
2015-12-25T00:24:48.179Z,74477
2015-12-25T00:25:00.538Z,74480
2015-12-25T00:25:12.948Z,74468
2015-12-25T00:25:25.354Z,74476
2015-12-25T00:25:37.744Z,74471
2015-12-25T00:25:49.994Z,74471
2015-12-25T00:26:02.369Z,74470
2015-12-25T00:26:14.732Z,74467
2015-12-25T00:26:27.091Z,74462
2015-12-25T00:26:38.716Z,74469
2015-12-25T00:26:50.919Z,74475
2015-12-25T00:27:03.297Z,74480
2015-12-25T00:27:15.657Z,74464
2015-12-25T00:27:28.016Z,74460
2015-12-25T00:27:40.391Z,74468
2015-12-25T00:27:52.766Z,74460
2015-12-25T00:28:05.112Z,74456
2015-12-25T00:28:17.471Z,74463
2015-12-25T00:28:29.846Z,74474
2015-12-25T00:28:42.206Z,74468
2015-12-25T00:28:54.581Z,74469
2015-12-25T00:29:06.959Z,74462
2015-12-25T00:29:19.334Z,74466
2015-12-25T00:29:31.709Z,74470
2015-12-25T00:29:44.115Z,74465
2015-12-25T00:29:56.490Z,74460
2015-12-25T00:30:08.868Z,74466
2015-12-25T00:30:21.258Z,74464
2015-12-25T00:30:33.665Z,74470
2015-12-25T00:30:46.008Z,74465
2015-12-25T00:30:58.415Z,74469
2015-12-25T00:31:10.777Z,74478
2015-12-25T00:31:23.136Z,74479
2015-12-25T00:31:35.496Z,74465
2015-12-25T00:31:47.855Z,74479
2015-12-25T00:32:00.215Z,74478
2015-12-25T00:32:12.560Z,74483
2015-12-25T00:32:24.232Z,74480
2015-12-25T00:32:36.607Z,74471
2015-12-25T00:32:48.956Z,74476
2015-12-25T00:33:01.331Z,74480
2015-12-25T00:33:13.693Z,74480
2015-12-25T00:33:26.068Z,74479
2015-12-25T00:33:38.443Z,74468
2015-12-25T00:33:50.834Z,74468
2015-12-25T00:34:03.256Z,74474
2015-12-25T00:34:15.681Z,74476
2015-12-25T00:34:28.056Z,74474
2015-12-25T00:34:40.431Z,74474
2015-12-25T00:34:52.821Z,74464
2015-12-25T00:35:05.165Z,74472
2015-12-25T00:35:17.511Z,74477
2015-12-25T00:35:29.854Z,74473
2015-12-25T00:35:42.214Z,74479
2015-12-25T00:35:54.573Z,74480
2015-12-25T00:36:06.917Z,74476
2015-12-25T00:36:19.296Z,74473
2015-12-25T00:36:31.655Z,74470
2015-12-25T00:36:43.999Z,74472
2015-12-25T00:36:56.374Z,74467
2015-12-25T00:37:08.593Z,74475
2015-12-25T00:37:21.001Z,74470
2015-12-25T00:37:33.407Z,74471
2015-12-25T00:37:45.767Z,74470
2015-12-25T00:37:58.157Z,74475
2015-12-25T00:38:10.548Z,74472
2015-12-25T00:38:22.942Z,74472
2015-12-25T00:38:35.332Z,74471
2015-12-25T00:38:47.770Z,74469
2015-12-25T00:39:00.176Z,74474
2015-12-25T00:39:12.535Z,74474
2015-12-25T00:39:24.726Z,74477
2015-12-25T00:39:37.085Z,74476
2015-12-25T00:39:49.476Z,74474
2015-12-25T00:40:01.851Z,74474
2015-12-25T00:40:14.195Z,74474
2015-12-25T00:40:26.556Z,74460
2015-12-25T00:40:38.915Z,74467
2015-12-25T00:40:50.556Z,74471
2015-12-25T00:41:02.915Z,74470
2015-12-25T00:41:15.322Z,74471
2015-12-25T00:41:27.684Z,74463
2015-12-25T00:41:40.121Z,74468
2015-12-25T00:41:52.543Z,74474
2015-12-25T00:42:04.918Z,74470
2015-12-25T00:42:17.309Z,74469
2015-12-25T00:42:29.703Z,74475
2015-12-25T00:42:42.078Z,74474
2015-12-25T00:42:54.484Z,74481
2015-12-25T00:43:06.984Z,74477
2015-12-25T00:43:19.406Z,74467
2015-12-25T00:43:31.767Z,74473
2015-12-25T00:43:44.126Z,74468
2015-12-25T00:43:56.501Z,74471
2015-12-25T00:44:08.861Z,74479
2015-12-25T00:44:21.205Z,74472
2015-12-25T00:44:33.568Z,74462
2015-12-25T00:44:45.927Z,74469
2015-12-25T00:44:58.287Z,74477
2015-12-25T00:45:10.646Z,74480
2015-12-25T00:45:23.005Z,74478
2015-12-25T00:45:35.367Z,74472
2015-12-25T00:45:47.773Z,74462
2015-12-25T00:46:00.195Z,74465
2015-12-25T00:46:12.570Z,74472
2015-12-25T00:46:24.226Z,74476
2015-12-25T00:46:36.620Z,74476
2015-12-25T00:46:48.995Z,74478
2015-12-25T00:47:01.385Z,74478
2015-12-25T00:47:13.776Z,74467
2015-12-25T00:47:26.167Z,74464
2015-12-25T00:47:38.559Z,74471
2015-12-25T00:47:50.997Z,74473
2015-12-25T00:48:03.372Z,74472
2015-12-25T00:48:14.309Z,74471
2015-12-25T00:48:26.669Z,74473
2015-12-25T00:48:39.032Z,74472
2015-12-25T00:48:51.391Z,74467
2015-12-25T00:49:03.766Z,74473
2015-12-25T00:49:16.173Z,74471
2015-12-25T00:49:28.563Z,74469
2015-12-25T00:49:40.909Z,74469
2015-12-25T00:49:53.284Z,74462
2015-12-25T00:50:05.659Z,74469
2015-12-25T00:50:18.034Z,74469
2015-12-25T00:50:30.440Z,74469
2015-12-25T00:50:42.803Z,74459
2015-12-25T00:50:55.193Z,74454
2015-12-25T00:51:07.568Z,74450
2015-12-25T00:51:19.959Z,74456
2015-12-25T00:51:32.350Z,74454
2015-12-25T00:51:44.728Z,74460
2015-12-25T00:51:57.134Z,74469
2015-12-25T00:52:09.493Z,74477
2015-12-25T00:52:21.837Z,74468
2015-12-25T00:52:34.196Z,74463
2015-12-25T00:52:46.542Z,74454
2015-12-25T00:52:58.901Z,74456
2015-12-25T00:53:11.276Z,74463
2015-12-25T00:53:23.636Z,74467
2015-12-25T00:53:35.995Z,74473
2015-12-25T00:53:48.358Z,74477
2015-12-25T00:54:00.701Z,74483
2015-12-25T00:54:13.076Z,74478
2015-12-25T00:54:25.451Z,74474
2015-12-25T00:54:37.826Z,74471
2015-12-25T00:54:50.032Z,74472
2015-12-25T00:55:02.423Z,74473
2015-12-25T00:55:14.095Z,74469
2015-12-25T00:55:26.501Z,74465
2015-12-25T00:55:38.923Z,74459
2015-12-25T00:55:51.285Z,74460
2015-12-25T00:56:03.629Z,74465
2015-12-25T00:56:15.989Z,74468
2015-12-25T00:56:28.348Z,74471
2015-12-25T00:56:40.754Z,74466
2015-12-25T00:56:53.148Z,74462
2015-12-25T00:57:05.523Z,74472
2015-12-25T00:57:17.867Z,74475
2015-12-25T00:57:30.288Z,74475
2015-12-25T00:57:42.663Z,74471
2015-12-25T00:57:55.009Z,74470
2015-12-25T00:58:07.384Z,74467
2015-12-25T00:58:19.744Z,74475
2015-12-25T00:58:31.400Z,74476
2015-12-25T00:58:43.072Z,74486
2015-12-25T00:58:55.465Z,74480
2015-12-25T00:59:07.872Z,74476
2015-12-25T00:59:20.262Z,74477
2015-12-25T00:59:32.637Z,74480
2015-12-25T00:59:45.043Z,74477
2015-12-25T00:59:57.389Z,74478
2015-12-25T01:00:09.733Z,74480
2015-12-25T01:00:22.108Z,74478
2015-12-25T01:00:34.499Z,74481
2015-12-25T01:00:47.124Z,74479
2015-12-25T01:00:59.330Z,74473
2015-12-25T01:01:11.689Z,74484
2015-12-25T01:01:24.048Z,74483
2015-12-25T01:01:36.408Z,74481
2015-12-25T01:01:48.814Z,74484
2015-12-25T01:02:01.223Z,74491
2015-12-25T01:02:13.583Z,74480
2015-12-25T01:02:25.958Z,74480
2015-12-25T01:02:38.333Z,74479
2015-12-25T01:02:50.708Z,74479
2015-12-25T01:03:03.101Z,74479
2015-12-25T01:03:15.476Z,74483
2015-12-25T01:03:27.883Z,74485
2015-12-25T01:03:40.304Z,74479
2015-12-25T01:03:52.679Z,74488
2015-12-25T01:04:05.057Z,74486
2015-12-25T01:04:17.417Z,74477
2015-12-25T01:04:29.776Z,74485
2015-12-25T01:04:42.151Z,74473
2015-12-25T01:04:54.513Z,74471
2015-12-25T01:05:06.872Z,74481
2015-12-25T01:05:19.231Z,74483
2015-12-25T01:05:31.606Z,74481
2015-12-25T01:05:43.950Z,74478
2015-12-25T01:05:56.312Z,74482
2015-12-25T01:06:08.672Z,74477
2015-12-25T01:06:21.078Z,74474
2015-12-25T01:06:33.484Z,74475
2015-12-25T01:06:45.828Z,74480
2015-12-25T01:06:58.189Z,74482
2015-12-25T01:07:10.580Z,74484
2015-12-25T01:07:22.955Z,74477
2015-12-25T01:07:35.346Z,74471
2015-12-25T01:07:47.736Z,74475
2015-12-25T01:08:00.146Z,74471
2015-12-25T01:08:12.536Z,74468
2015-12-25T01:08:24.958Z,74473
2015-12-25T01:08:36.599Z,74478
2015-12-25T01:08:48.958Z,74485
2015-12-25T01:09:01.320Z,74484
2015-12-25T01:09:13.664Z,74479
2015-12-25T01:09:26.024Z,74471
2015-12-25T01:09:38.445Z,74474
2015-12-25T01:09:50.820Z,74476
2015-12-25T01:10:03.167Z,74477
2015-12-25T01:10:15.527Z,74478
2015-12-25T01:10:27.886Z,74482
2015-12-25T01:10:40.355Z,74477
2015-12-25T01:10:52.573Z,74481
2015-12-25T01:11:04.951Z,74483
2015-12-25T01:11:17.326Z,74481
2015-12-25T01:11:29.701Z,74480
2015-12-25T01:11:42.092Z,74482
2015-12-25T01:11:54.514Z,74480
2015-12-25T01:12:06.969Z,74476
2015-12-25T01:12:19.344Z,74476
2015-12-25T01:12:31.735Z,74476
2015-12-25T01:12:44.094Z,74476
2015-12-25T01:12:56.453Z,74477
2015-12-25T01:13:08.800Z,74476
2015-12-25T01:13:21.144Z,74482
2015-12-25T01:13:33.566Z,74477
2015-12-25T01:13:45.956Z,74475
2015-12-25T01:13:58.300Z,74478
2015-12-25T01:14:10.662Z,74479
2015-12-25T01:14:23.021Z,74477
2015-12-25T01:14:35.380Z,74480
2015-12-25T01:14:47.787Z,74478
2015-12-25T01:15:00.193Z,74477
2015-12-25T01:15:12.572Z,74482
2015-12-25T01:15:24.947Z,74480
2015-12-25T01:15:36.603Z,74476
2015-12-25T01:15:48.994Z,74474
2015-12-25T01:16:01.259Z,74474
2015-12-25T01:16:13.653Z,74469
2015-12-25T01:16:26.044Z,74473
2015-12-25T01:16:38.278Z,74477
2015-12-25T01:16:50.684Z,74471
2015-12-25T01:17:02.874Z,74478
2015-12-25T01:17:15.280Z,74473
2015-12-25T01:17:27.655Z,74469
2015-12-25T01:17:40.014Z,74473
2015-12-25T01:17:52.358Z,74483
2015-12-25T01:18:04.719Z,74478
2015-12-25T01:18:17.063Z,74478
2015-12-25T01:18:29.423Z,74473
2015-12-25T01:18:41.782Z,74470
2015-12-25T01:18:54.126Z,74476
2015-12-25T01:19:06.489Z,74474
2015-12-25T01:19:18.927Z,74475
2015-12-25T01:19:31.302Z,74471
2015-12-25T01:19:43.677Z,74477
2015-12-25T01:19:56.052Z,74477
2015-12-25T01:20:08.444Z,74475
2015-12-25T01:20:20.835Z,74474
2015-12-25T01:20:33.522Z,74473
2015-12-25T01:20:45.960Z,74478
2015-12-25T01:20:58.382Z,74484
2015-12-25T01:21:10.744Z,74481
2015-12-25T01:21:23.103Z,74481
2015-12-25T01:21:35.447Z,74479
2015-12-25T01:21:47.807Z,74479
2015-12-25T01:22:34.825Z,74471
2015-12-25T01:22:47.310Z,74473
2015-12-25T01:22:59.653Z,74476
2015-12-25T01:23:12.013Z,74482
2015-12-25T01:23:24.375Z,74476
2015-12-25T01:23:36.750Z,74475
2015-12-25T01:23:49.109Z,74475
2015-12-25T01:24:01.531Z,74469
2015-12-25T01:24:13.969Z,74475
2015-12-25T01:24:26.347Z,74471
2015-12-25T01:24:38.722Z,74478
2015-12-25T01:24:51.081Z,74478
2015-12-25T01:25:03.425Z,74476
2015-12-25T01:25:15.081Z,74461
2015-12-25T01:25:27.475Z,74457
2015-12-25T01:25:39.834Z,74474
2015-12-25T01:25:52.194Z,74483
2015-12-25T01:26:04.537Z,74475
2015-12-25T01:26:16.897Z,74470
2015-12-25T01:26:29.258Z,74477
2015-12-25T01:26:41.649Z,74480
2015-12-25T01:26:54.055Z,74481
2015-12-25T01:27:06.414Z,74488
2015-12-25T01:27:18.789Z,74491
2015-12-25T01:27:31.152Z,74485
2015-12-25T01:27:43.558Z,74485
2015-12-25T01:27:55.949Z,74488
2015-12-25T01:28:08.324Z,74486
2015-12-25T01:28:20.714Z,74479
2015-12-25T01:28:33.108Z,74475
2015-12-25T01:28:45.483Z,74474
2015-12-25T01:28:57.858Z,74470
2015-12-25T01:29:10.233Z,74486
2015-12-25T01:29:22.592Z,74494
2015-12-25T01:29:34.954Z,74497
2015-12-25T01:29:47.329Z,74501
2015-12-25T01:29:59.672Z,74495
2015-12-25T01:30:12.016Z,74496
2015-12-25T01:30:24.375Z,74502
2015-12-25T01:30:36.738Z,74500
2015-12-25T01:30:49.082Z,74492
2015-12-25T01:31:01.441Z,74494
2015-12-25T01:31:13.816Z,74486
2015-12-25T01:31:25.472Z,74492
2015-12-25T01:31:37.849Z,74490
2015-12-25T01:31:50.224Z,74490
2015-12-25T01:32:02.599Z,74489
2015-12-25T01:32:14.990Z,74492
2015-12-25T01:32:27.365Z,74498
2015-12-25T01:32:39.759Z,74500
2015-12-25T01:32:52.150Z,74499
2015-12-25T01:33:04.509Z,74492
2015-12-25T01:33:16.869Z,74495
2015-12-25T01:33:29.213Z,74483
2015-12-25T01:33:41.574Z,74485
2015-12-25T01:33:53.965Z,74490
2015-12-25T01:34:06.324Z,74502
2015-12-25T01:34:18.683Z,74496
2015-12-25T01:34:31.027Z,74492
2015-12-25T01:34:43.405Z,74498
2015-12-25T01:34:55.764Z,74497
2015-12-25T01:35:08.124Z,74497
2015-12-25T01:35:20.499Z,74487
2015-12-25T01:35:32.858Z,74498
2015-12-25T01:35:44.517Z,74500
2015-12-25T01:35:56.877Z,74502
2015-12-25T01:36:09.267Z,74501
2015-12-25T01:36:21.642Z,74502
2015-12-25T01:36:34.017Z,74504
2015-12-25T01:36:46.395Z,74507
2015-12-25T01:36:58.755Z,74504
2015-12-25T01:37:11.145Z,74498
2015-12-25T01:37:23.505Z,74494
2015-12-25T01:37:35.849Z,74498
2015-12-25T01:37:48.210Z,74499
2015-12-25T01:38:00.569Z,74503
2015-12-25T01:38:12.913Z,74501
2015-12-25T01:38:25.288Z,74500
2015-12-25T01:38:37.663Z,74499
2015-12-25T01:38:50.025Z,74500
2015-12-25T01:39:02.385Z,74496
2015-12-25T01:39:14.744Z,74492
2015-12-25T01:39:27.104Z,74485
2015-12-25T01:39:39.463Z,74495
2015-12-25T01:39:51.841Z,74496
2015-12-25T01:40:04.200Z,74489
2015-12-25T01:40:16.575Z,74492
2015-12-25T01:40:28.966Z,74495
2015-12-25T01:40:41.357Z,74503
2015-12-25T01:40:53.750Z,74497
2015-12-25T01:41:06.203Z,74500
2015-12-25T01:41:18.578Z,74502
2015-12-25T01:41:31.016Z,74491
2015-12-25T01:41:43.360Z,74502
2015-12-25T01:41:55.768Z,74508
2015-12-25T01:42:08.127Z,74504
2015-12-25T01:42:20.471Z,74509
2015-12-25T01:42:32.893Z,74502
2015-12-25T01:42:45.252Z,74503
2015-12-25T01:42:57.646Z,74508
2015-12-25T01:43:10.021Z,74501
2015-12-25T01:43:22.380Z,74496
2015-12-25T01:43:34.724Z,74487
2015-12-25T01:43:47.083Z,74489
2015-12-25T01:43:59.461Z,74496
2015-12-25T01:44:11.821Z,74500
2015-12-25T01:44:24.180Z,74498
2015-12-25T01:44:36.555Z,74498
2015-12-25T01:44:48.946Z,74498
2015-12-25T01:45:01.355Z,74496
2015-12-25T01:45:13.746Z,74504
2015-12-25T01:45:26.105Z,74510
2015-12-25T01:45:38.496Z,74490
2015-12-25T01:45:50.889Z,74490
2015-12-25T01:46:03.264Z,74490
2015-12-25T01:46:15.624Z,74484
2015-12-25T01:46:27.967Z,74495
2015-12-25T01:46:40.170Z,74496
2015-12-25T01:46:52.547Z,74494
2015-12-25T01:47:04.907Z,74498
2015-12-25T01:47:17.313Z,74501
2015-12-25T01:47:29.704Z,74493
2015-12-25T01:47:42.094Z,74492
2015-12-25T01:47:54.472Z,74495
2015-12-25T01:48:06.222Z,74489
2015-12-25T01:48:18.613Z,74490
2015-12-25T01:48:30.972Z,74498
2015-12-25T01:48:43.316Z,74502
2015-12-25T01:48:55.677Z,74497
2015-12-25T01:49:08.037Z,74496
2015-12-25T01:49:20.396Z,74492
2015-12-25T01:49:32.740Z,74496
2015-12-25T01:49:45.115Z,74497
2015-12-25T01:49:57.477Z,74492
2015-12-25T01:50:09.821Z,74489
2015-12-25T01:50:22.180Z,74493
2015-12-25T01:50:34.540Z,74501
2015-12-25T01:50:46.915Z,74501
2015-12-25T01:50:59.277Z,74499
2015-12-25T01:51:11.652Z,74502
2015-12-25T01:51:24.027Z,74506
2015-12-25T01:51:36.433Z,74505
2015-12-25T01:51:48.808Z,74505
2015-12-25T01:52:01.201Z,74498
2015-12-25T01:52:13.592Z,74496
2015-12-25T01:52:25.967Z,74485
2015-12-25T01:52:38.326Z,74491
2015-12-25T01:52:50.685Z,74506
2015-12-25T01:53:03.033Z,74503
2015-12-25T01:53:15.393Z,74504
2015-12-25T01:53:27.768Z,74502
2015-12-25T01:53:40.111Z,74503
2015-12-25T01:53:52.471Z,74501
2015-12-25T01:54:04.832Z,74499
2015-12-25T01:54:17.191Z,74500
2015-12-25T01:54:29.535Z,74492
2015-12-25T01:54:41.895Z,74491
2015-12-25T01:54:54.285Z,74496
2015-12-25T01:55:06.663Z,74496
2015-12-25T01:55:19.038Z,74500
2015-12-25T01:55:31.413Z,74502
2015-12-25T01:55:43.804Z,74499
2015-12-25T01:55:56.179Z,74501
2015-12-25T01:56:08.572Z,74493
2015-12-25T01:56:20.947Z,74498
2015-12-25T01:56:33.338Z,74491
2015-12-25T01:56:45.729Z,74488
2015-12-25T01:56:58.091Z,74497
2015-12-25T01:57:10.450Z,74499
2015-12-25T01:57:22.810Z,74505
2015-12-25T01:57:35.154Z,74507
2015-12-25T01:57:47.529Z,74503
2015-12-25T01:57:59.937Z,74505
2015-12-25T01:58:12.296Z,74495
2015-12-25T01:58:24.671Z,74492
2015-12-25T01:58:37.031Z,74490
2015-12-25T01:58:49.374Z,74498
2015-12-25T01:59:01.752Z,74503
2015-12-25T01:59:14.112Z,74500
2015-12-25T01:59:26.487Z,74498
2015-12-25T01:59:38.159Z,74495
2015-12-25T01:59:50.534Z,74499
2015-12-25T02:00:02.926Z,74503
2015-12-25T02:00:15.317Z,74495
2015-12-25T02:00:27.707Z,74497
2015-12-25T02:00:40.082Z,74501
2015-12-25T02:00:52.489Z,74502
2015-12-25T02:01:04.710Z,74495
2015-12-25T02:01:17.085Z,74493
2015-12-25T02:01:29.445Z,74492
2015-12-25T02:01:41.747Z,74502
2015-12-25T02:01:54.137Z,74506
2015-12-25T02:02:06.500Z,74504
2015-12-25T02:02:18.859Z,74498
2015-12-25T02:02:31.218Z,74495
2015-12-25T02:02:43.578Z,74496
2015-12-25T02:02:55.953Z,74496
2015-12-25T02:03:08.298Z,74493
2015-12-25T02:03:20.658Z,74495
2015-12-25T02:03:33.017Z,74500
2015-12-25T02:03:45.392Z,74503
2015-12-25T02:03:57.845Z,74503
2015-12-25T02:04:10.067Z,74491
2015-12-25T02:04:22.458Z,74493
2015-12-25T02:04:34.848Z,74496
2015-12-25T02:04:47.239Z,74499
2015-12-25T02:04:59.583Z,74501
2015-12-25T02:05:11.946Z,74498
2015-12-25T02:05:24.305Z,74498
2015-12-25T02:05:36.665Z,74498
2015-12-25T02:05:49.024Z,74495
2015-12-25T02:06:01.384Z,74490
2015-12-25T02:06:13.745Z,74484
2015-12-25T02:06:26.089Z,74494
2015-12-25T02:06:38.448Z,74494
2015-12-25T02:06:50.807Z,74491
2015-12-25T02:07:03.198Z,74485
2015-12-25T02:07:15.576Z,74477
2015-12-25T02:07:27.951Z,74491
2015-12-25T02:07:39.623Z,74494
2015-12-25T02:07:51.982Z,74491
2015-12-25T02:08:04.357Z,74495
2015-12-25T02:08:16.751Z,74497
2015-12-25T02:08:29.001Z,74494
2015-12-25T02:08:41.485Z,74488
2015-12-25T02:08:53.860Z,74493
2015-12-25T02:09:06.267Z,74495
2015-12-25T02:09:18.638Z,74495
2015-12-25T02:09:30.966Z,74499
2015-12-25T02:09:43.309Z,74499
2015-12-25T02:09:55.653Z,74504
2015-12-25T02:10:08.044Z,74499
2015-12-25T02:10:20.378Z,74500
2015-12-25T02:10:32.737Z,74500
2015-12-25T02:10:45.096Z,74499
2015-12-25T02:10:57.456Z,74499
2015-12-25T02:11:09.804Z,74505
2015-12-25T02:11:22.155Z,74504
2015-12-25T02:11:33.811Z,74501
2015-12-25T02:11:46.186Z,74506
2015-12-25T02:11:58.545Z,74510
2015-12-25T02:12:10.905Z,74507
2015-12-25T02:12:23.286Z,74507
2015-12-25T02:12:35.677Z,74499
2015-12-25T02:12:48.083Z,74508
2015-12-25T02:13:00.474Z,74504
2015-12-25T02:13:12.849Z,74506
2015-12-25T02:13:25.246Z,74507
2015-12-25T02:13:37.684Z,74505
2015-12-25T02:13:50.043Z,74490
2015-12-25T02:14:02.387Z,74493
2015-12-25T02:14:14.762Z,74486
2015-12-25T02:14:27.023Z,74497
2015-12-25T02:14:39.430Z,74511
2015-12-25T02:14:51.789Z,74515
2015-12-25T02:15:03.836Z,74501
2015-12-25T02:15:16.195Z,74499
2015-12-25T02:15:28.538Z,74507
2015-12-25T02:15:40.897Z,74501
2015-12-25T02:15:53.257Z,74496
2015-12-25T02:16:05.616Z,74503
2015-12-25T02:16:17.991Z,74503
2015-12-25T02:16:30.364Z,74492
2015-12-25T02:16:42.755Z,74491
2015-12-25T02:16:55.145Z,74485
2015-12-25T02:17:07.505Z,74484
2015-12-25T02:17:19.848Z,74490
2015-12-25T02:17:32.222Z,74499
2015-12-25T02:17:44.582Z,74505
2015-12-25T02:17:56.957Z,74501
2015-12-25T02:18:09.301Z,74511
2015-12-25T02:18:21.660Z,74513
2015-12-25T02:18:34.017Z,74515
2015-12-25T02:18:46.377Z,74515
2015-12-25T02:18:58.564Z,74511
2015-12-25T02:19:10.924Z,74508
2015-12-25T02:19:23.299Z,74503
2015-12-25T02:19:35.659Z,74506
2015-12-25T02:19:48.034Z,74507
2015-12-25T02:20:00.409Z,74506
2015-12-25T02:20:12.800Z,74501
2015-12-25T02:20:25.191Z,74493
2015-12-25T02:20:37.582Z,74499
2015-12-25T02:20:49.972Z,74496
2015-12-25T02:21:02.332Z,74496
2015-12-25T02:21:13.972Z,74494
2015-12-25T02:21:26.333Z,74500
2015-12-25T02:21:38.692Z,74514
2015-12-25T02:21:51.052Z,74500
2015-12-25T02:22:03.395Z,74503
2015-12-25T02:22:15.755Z,74508
2015-12-25T02:22:28.115Z,74502
2015-12-25T02:22:40.474Z,74499
2015-12-25T02:22:52.834Z,74499
2015-12-25T02:23:05.224Z,74507
2015-12-25T02:23:17.646Z,74500
2015-12-25T02:23:30.008Z,74504
2015-12-25T02:23:42.383Z,74505
2015-12-25T02:23:54.742Z,74508
2015-12-25T02:24:07.133Z,74503
2015-12-25T02:24:19.539Z,74502
2015-12-25T02:24:31.915Z,74504
2015-12-25T02:24:43.571Z,74503
2015-12-25T02:24:55.931Z,74501
2015-12-25T02:25:08.274Z,74509
2015-12-25T02:25:20.649Z,74504
2015-12-25T02:25:33.011Z,74503
2015-12-25T02:25:45.370Z,74509
2015-12-25T02:25:57.729Z,74512
2015-12-25T02:26:10.136Z,74510
2015-12-25T02:26:22.479Z,74501
2015-12-25T02:26:34.841Z,74494
2015-12-25T02:26:47.216Z,74496
2015-12-25T02:26:59.575Z,74505
2015-12-25T02:27:11.966Z,74501
2015-12-25T02:27:24.372Z,74505
2015-12-25T02:27:36.921Z,74503
2015-12-25T02:27:49.312Z,74503
2015-12-25T02:28:01.702Z,74495
2015-12-25T02:28:14.093Z,74499
2015-12-25T02:28:26.468Z,74503
2015-12-25T02:28:38.829Z,74498
2015-12-25T02:28:51.189Z,74504
2015-12-25T02:29:03.548Z,74506
2015-12-25T02:29:15.907Z,74507
2015-12-25T02:29:28.267Z,74503
2015-12-25T02:29:40.629Z,74498
2015-12-25T02:29:52.988Z,74500
2015-12-25T02:30:05.332Z,74503
2015-12-25T02:30:17.707Z,74504
2015-12-25T02:30:30.051Z,74503
2015-12-25T02:30:42.413Z,74512
2015-12-25T02:30:54.773Z,74511
2015-12-25T02:31:07.132Z,74517
2015-12-25T02:31:19.491Z,74505
2015-12-25T02:31:31.851Z,74508
2015-12-25T02:31:44.244Z,74510
2015-12-25T02:31:56.635Z,74501
2015-12-25T02:32:09.026Z,74505
2015-12-25T02:32:20.713Z,74505
2015-12-25T02:32:33.088Z,74509
2015-12-25T02:32:45.465Z,74510
2015-12-25T02:32:57.840Z,74514
2015-12-25T02:33:10.200Z,74507
2015-12-25T02:33:22.543Z,74507
2015-12-25T02:33:34.903Z,74496
2015-12-25T02:33:47.311Z,74493
2015-12-25T02:33:59.717Z,74494
2015-12-25T02:34:12.077Z,74505
2015-12-25T02:34:24.420Z,74509
2015-12-25T02:34:36.795Z,74508
2015-12-25T02:34:49.158Z,74510
2015-12-25T02:35:01.501Z,74512
2015-12-25T02:35:13.876Z,74509
2015-12-25T02:35:26.236Z,74507
2015-12-25T02:35:38.598Z,74516
2015-12-25T02:35:50.973Z,74519
2015-12-25T02:36:03.348Z,74520
2015-12-25T02:36:15.739Z,74509
2015-12-25T02:36:28.129Z,74509
2015-12-25T02:36:40.523Z,74510
2015-12-25T02:36:52.882Z,74511
2015-12-25T02:37:05.242Z,74508
2015-12-25T02:37:17.586Z,74501
2015-12-25T02:37:29.976Z,74491
2015-12-25T02:37:42.353Z,74488
2015-12-25T02:37:54.697Z,74506
2015-12-25T02:38:07.072Z,74501
2015-12-25T02:38:18.759Z,74502
2015-12-25T02:38:31.134Z,74507
2015-12-25T02:38:43.513Z,74507
2015-12-25T02:38:55.888Z,74510
2015-12-25T02:39:08.279Z,74507
2015-12-25T02:39:20.670Z,74514
2015-12-25T02:39:33.045Z,74512